sensor_id;sensor_type;location;lat;lon;timestamp;P1;durP1;ratioP1;P2;durP2;ratioP2
8628;SDS011;4352;49.404;11.092;2022-07-22T00:02:21;10.00;;;6.37;;
8628;SDS011;4352;49.404;11.092;2022-07-22T00:04:48;6.97;;;6.20;;
8628;SDS011;4352;49.404;11.092;2022-07-22T00:07:15;9.50;;;7.13;;
8628;SDS011;4352;49.404;11.092;2022-07-22T00:09:42;10.73;;;6.70;;
8628;SDS011;4352;49.404;11.092;2022-07-22T00:12:11;7.50;;;6.57;;
8628;SDS011;4352;49.404;11.092;2022-07-22T00:14:38;7.30;;;6.60;;
8628;SDS011;4352;49.404;11.092;2022-07-22T00:17:05;9.93;;;6.83;;
8628;SDS011;4352;49.404;11.092;2022-07-22T00:19:32;6.80;;;6.07;;
8628;SDS011;4352;49.404;11.092;2022-07-22T00:21:59;8.33;;;7.10;;
8628;SDS011;4352;49.404;11.092;2022-07-22T00:24:26;8.30;;;6.67;;
8628;SDS011;4352;49.404;11.092;2022-07-22T00:26:53;7.30;;;6.57;;
8628;SDS011;4352;49.404;11.092;2022-07-22T00:29:22;9.53;;;7.13;;
8628;SDS011;4352;49.404;11.092;2022-07-22T00:31:49;8.63;;;7.53;;
8628;SDS011;4352;49.404;11.092;2022-07-22T00:34:16;8.57;;;7.33;;
8628;SDS011;4352;49.404;11.092;2022-07-22T00:36:43;8.17;;;7.37;;
8628;SDS011;4352;49.404;11.092;2022-07-22T00:39:10;8.13;;;7.33;;
8628;SDS011;4352;49.404;11.092;2022-07-22T00:41:37;10.63;;;6.90;;
8628;SDS011;4352;49.404;11.092;2022-07-22T00:44:05;7.67;;;6.67;;
8628;SDS011;4352;49.404;11.092;2022-07-22T00:46:34;7.80;;;7.00;;
8628;SDS011;4352;49.404;11.092;2022-07-22T00:49:02;8.30;;;7.00;;
8628;SDS011;4352;49.404;11.092;2022-07-22T00:51:30;8.43;;;7.47;;
8628;SDS011;4352;49.404;11.092;2022-07-22T00:53:57;7.87;;;7.07;;
8628;SDS011;4352;49.404;11.092;2022-07-22T00:56:25;8.63;;;7.50;;
8628;SDS011;4352;49.404;11.092;2022-07-22T00:58:53;8.23;;;7.10;;
8628;SDS011;4352;49.404;11.092;2022-07-22T01:01:20;8.27;;;7.17;;
8628;SDS011;4352;49.404;11.092;2022-07-22T01:03:49;8.30;;;6.80;;
8628;SDS011;4352;49.404;11.092;2022-07-22T01:06:16;9.97;;;7.50;;
8628;SDS011;4352;49.404;11.092;2022-07-22T01:08:43;10.97;;;7.87;;
8628;SDS011;4352;49.404;11.092;2022-07-22T01:11:11;8.47;;;7.00;;
8628;SDS011;4352;49.404;11.092;2022-07-22T01:13:38;7.87;;;7.07;;
8628;SDS011;4352;49.404;11.092;2022-07-22T01:16:06;9.13;;;7.63;;
8628;SDS011;4352;49.404;11.092;2022-07-22T01:18:34;8.53;;;7.30;;
8628;SDS011;4352;49.404;11.092;2022-07-22T01:21:03;9.03;;;7.23;;
8628;SDS011;4352;49.404;11.092;2022-07-22T01:23:30;9.97;;;7.30;;
8628;SDS011;4352;49.404;11.092;2022-07-22T01:25:57;8.27;;;7.30;;
8628;SDS011;4352;49.404;11.092;2022-07-22T01:28:24;8.03;;;6.90;;
8628;SDS011;4352;49.404;11.092;2022-07-22T01:30:51;8.43;;;6.90;;
8628;SDS011;4352;49.404;11.092;2022-07-22T01:33:19;8.40;;;7.50;;
8628;SDS011;4352;49.404;11.092;2022-07-22T01:35:46;8.63;;;7.33;;
8628;SDS011;4352;49.404;11.092;2022-07-22T01:38:15;8.33;;;6.83;;
8628;SDS011;4352;49.404;11.092;2022-07-22T01:40:44;9.47;;;7.27;;
8628;SDS011;4352;49.404;11.092;2022-07-22T01:43:11;8.70;;;7.30;;
8628;SDS011;4352;49.404;11.092;2022-07-22T01:45:42;8.67;;;7.77;;
8628;SDS011;4352;49.404;11.092;2022-07-22T01:48:09;8.27;;;7.37;;
8628;SDS011;4352;49.404;11.092;2022-07-22T01:50:36;9.13;;;7.93;;
8628;SDS011;4352;49.404;11.092;2022-07-22T01:53:03;8.13;;;7.10;;
8628;SDS011;4352;49.404;11.092;2022-07-22T01:55:32;7.97;;;7.03;;
8628;SDS011;4352;49.404;11.092;2022-07-22T01:57:59;8.03;;;7.27;;
8628;SDS011;4352;49.404;11.092;2022-07-22T02:00:28;8.23;;;7.40;;
8628;SDS011;4352;49.404;11.092;2022-07-22T02:02:55;7.17;;;6.47;;
8628;SDS011;4352;49.404;11.092;2022-07-22T02:05:22;9.57;;;7.57;;
8628;SDS011;4352;49.404;11.092;2022-07-22T02:07:50;11.50;;;8.13;;
8628;SDS011;4352;49.404;11.092;2022-07-22T02:10:17;9.23;;;8.33;;
8628;SDS011;4352;49.404;11.092;2022-07-22T02:12:45;9.30;;;8.03;;
8628;SDS011;4352;49.404;11.092;2022-07-22T02:15:12;10.63;;;7.83;;
8628;SDS011;4352;49.404;11.092;2022-07-22T02:17:39;9.10;;;8.20;;
8628;SDS011;4352;49.404;11.092;2022-07-22T02:20:07;9.50;;;8.30;;
8628;SDS011;4352;49.404;11.092;2022-07-22T02:22:34;8.50;;;7.67;;
8628;SDS011;4352;49.404;11.092;2022-07-22T02:25:01;9.13;;;8.03;;
8628;SDS011;4352;49.404;11.092;2022-07-22T02:27:29;9.00;;;8.07;;
8628;SDS011;4352;49.404;11.092;2022-07-22T02:29:57;9.60;;;8.60;;
8628;SDS011;4352;49.404;11.092;2022-07-22T02:32:24;8.97;;;7.70;;
8628;SDS011;4352;49.404;11.092;2022-07-22T02:34:52;9.47;;;7.40;;
8628;SDS011;4352;49.404;11.092;2022-07-22T02:37:19;9.50;;;8.07;;
8628;SDS011;4352;49.404;11.092;2022-07-22T02:39:46;8.43;;;7.63;;
8628;SDS011;4352;49.404;11.092;2022-07-22T02:42:13;11.93;;;8.63;;
8628;SDS011;4352;49.404;11.092;2022-07-22T02:44:40;9.13;;;8.00;;
8628;SDS011;4352;49.404;11.092;2022-07-22T02:47:08;9.80;;;8.80;;
8628;SDS011;4352;49.404;11.092;2022-07-22T02:49:35;11.80;;;8.57;;
8628;SDS011;4352;49.404;11.092;2022-07-22T02:52:03;8.50;;;7.63;;
8628;SDS011;4352;49.404;11.092;2022-07-22T02:54:30;10.47;;;9.10;;
8628;SDS011;4352;49.404;11.092;2022-07-22T02:56:58;11.27;;;9.30;;
8628;SDS011;4352;49.404;11.092;2022-07-22T02:59:25;9.40;;;8.50;;
8628;SDS011;4352;49.404;11.092;2022-07-22T03:01:52;12.87;;;8.67;;
8628;SDS011;4352;49.404;11.092;2022-07-22T03:04:23;13.07;;;8.60;;
8628;SDS011;4352;49.404;11.092;2022-07-22T03:07:05;8.97;;;8.00;;
8628;SDS011;4352;49.404;11.092;2022-07-22T03:09:32;9.23;;;8.17;;
8628;SDS011;4352;49.404;11.092;2022-07-22T03:11:59;11.70;;;8.40;;
8628;SDS011;4352;49.404;11.092;2022-07-22T03:14:26;10.47;;;9.23;;
8628;SDS011;4352;49.404;11.092;2022-07-22T03:16:53;9.80;;;8.20;;
8628;SDS011;4352;49.404;11.092;2022-07-22T03:19:21;9.40;;;8.23;;
8628;SDS011;4352;49.404;11.092;2022-07-22T03:21:48;10.63;;;8.53;;
8628;SDS011;4352;49.404;11.092;2022-07-22T03:24:15;9.47;;;8.37;;
8628;SDS011;4352;49.404;11.092;2022-07-22T03:26:42;12.00;;;9.50;;
8628;SDS011;4352;49.404;11.092;2022-07-22T03:29:10;10.93;;;8.03;;
8628;SDS011;4352;49.404;11.092;2022-07-22T03:31:37;10.93;;;8.23;;
8628;SDS011;4352;49.404;11.092;2022-07-22T03:34:04;9.50;;;8.50;;
8628;SDS011;4352;49.404;11.092;2022-07-22T03:36:32;9.10;;;8.03;;
8628;SDS011;4352;49.404;11.092;2022-07-22T03:38:59;10.83;;;8.67;;
8628;SDS011;4352;49.404;11.092;2022-07-22T03:41:26;9.73;;;8.40;;
8628;SDS011;4352;49.404;11.092;2022-07-22T03:43:53;11.30;;;9.07;;
8628;SDS011;4352;49.404;11.092;2022-07-22T03:46:20;12.87;;;8.40;;
8628;SDS011;4352;49.404;11.092;2022-07-22T03:48:47;11.00;;;8.60;;
8628;SDS011;4352;49.404;11.092;2022-07-22T03:51:14;10.53;;;9.20;;
8628;SDS011;4352;49.404;11.092;2022-07-22T03:53:43;9.20;;;8.37;;
8628;SDS011;4352;49.404;11.092;2022-07-22T03:56:10;10.27;;;9.17;;
8628;SDS011;4352;49.404;11.092;2022-07-22T03:58:37;10.57;;;9.10;;
8628;SDS011;4352;49.404;11.092;2022-07-22T04:01:04;10.27;;;9.27;;
8628;SDS011;4352;49.404;11.092;2022-07-22T04:03:31;10.93;;;9.83;;
8628;SDS011;4352;49.404;11.092;2022-07-22T04:05:58;11.37;;;9.33;;
8628;SDS011;4352;49.404;11.092;2022-07-22T04:08:26;10.80;;;8.70;;
8628;SDS011;4352;49.404;11.092;2022-07-22T04:10:54;12.97;;;9.80;;
8628;SDS011;4352;49.404;11.092;2022-07-22T04:13:21;11.57;;;10.13;;
8628;SDS011;4352;49.404;11.092;2022-07-22T04:15:48;13.63;;;9.47;;
8628;SDS011;4352;49.404;11.092;2022-07-22T04:18:15;11.40;;;9.70;;
8628;SDS011;4352;49.404;11.092;2022-07-22T04:20:43;14.57;;;9.90;;
8628;SDS011;4352;49.404;11.092;2022-07-22T04:23:10;11.77;;;9.80;;
8628;SDS011;4352;49.404;11.092;2022-07-22T04:25:37;13.20;;;9.87;;
8628;SDS011;4352;49.404;11.092;2022-07-22T04:28:05;11.40;;;10.23;;
8628;SDS011;4352;49.404;11.092;2022-07-22T04:30:32;11.27;;;9.67;;
8628;SDS011;4352;49.404;11.092;2022-07-22T04:32:59;10.60;;;9.50;;
8628;SDS011;4352;49.404;11.092;2022-07-22T04:35:26;10.10;;;9.10;;
8628;SDS011;4352;49.404;11.092;2022-07-22T04:37:53;11.80;;;9.50;;
8628;SDS011;4352;49.404;11.092;2022-07-22T04:40:20;12.83;;;9.67;;
8628;SDS011;4352;49.404;11.092;2022-07-22T04:42:47;11.10;;;9.27;;
8628;SDS011;4352;49.404;11.092;2022-07-22T04:45:16;11.73;;;9.13;;
8628;SDS011;4352;49.404;11.092;2022-07-22T04:47:43;15.00;;;10.10;;
8628;SDS011;4352;49.404;11.092;2022-07-22T04:50:10;11.13;;;9.67;;
8628;SDS011;4352;49.404;11.092;2022-07-22T04:52:37;12.23;;;9.70;;
8628;SDS011;4352;49.404;11.092;2022-07-22T04:55:05;11.93;;;9.33;;
8628;SDS011;4352;49.404;11.092;2022-07-22T04:57:32;11.77;;;9.80;;
8628;SDS011;4352;49.404;11.092;2022-07-22T04:59:59;14.77;;;8.87;;
8628;SDS011;4352;49.404;11.092;2022-07-22T05:02:27;12.10;;;9.43;;
8628;SDS011;4352;49.404;11.092;2022-07-22T05:04:54;11.37;;;9.30;;
8628;SDS011;4352;49.404;11.092;2022-07-22T05:07:21;14.27;;;9.70;;
8628;SDS011;4352;49.404;11.092;2022-07-22T05:09:48;11.37;;;9.83;;
8628;SDS011;4352;49.404;11.092;2022-07-22T05:12:15;15.77;;;10.43;;
8628;SDS011;4352;49.404;11.092;2022-07-22T05:14:43;15.57;;;9.57;;
8628;SDS011;4352;49.404;11.092;2022-07-22T05:17:10;9.90;;;9.00;;
8628;SDS011;4352;49.404;11.092;2022-07-22T05:19:39;12.57;;;9.77;;
8628;SDS011;4352;49.404;11.092;2022-07-22T05:22:06;11.47;;;9.73;;
8628;SDS011;4352;49.404;11.092;2022-07-22T05:24:33;12.07;;;9.60;;
8628;SDS011;4352;49.404;11.092;2022-07-22T05:27:00;10.40;;;9.30;;
8628;SDS011;4352;49.404;11.092;2022-07-22T05:29:28;10.33;;;9.23;;
8628;SDS011;4352;49.404;11.092;2022-07-22T05:31:55;15.97;;;9.63;;
8628;SDS011;4352;49.404;11.092;2022-07-22T05:34:22;9.27;;;8.10;;
8628;SDS011;4352;49.404;11.092;2022-07-22T05:36:50;10.30;;;7.87;;
8628;SDS011;4352;49.404;11.092;2022-07-22T05:39:17;10.57;;;8.10;;
8628;SDS011;4352;49.404;11.092;2022-07-22T05:41:44;9.87;;;7.50;;
8628;SDS011;4352;49.404;11.092;2022-07-22T05:44:11;8.43;;;7.47;;
8628;SDS011;4352;49.404;11.092;2022-07-22T05:46:38;9.13;;;7.70;;
8628;SDS011;4352;49.404;11.092;2022-07-22T05:49:06;8.63;;;7.73;;
8628;SDS011;4352;49.404;11.092;2022-07-22T05:51:33;10.80;;;7.80;;
8628;SDS011;4352;49.404;11.092;2022-07-22T05:54:02;8.63;;;7.73;;
8628;SDS011;4352;49.404;11.092;2022-07-22T05:56:29;12.63;;;8.20;;
8628;SDS011;4352;49.404;11.092;2022-07-22T05:58:56;11.33;;;7.90;;
8628;SDS011;4352;49.404;11.092;2022-07-22T06:01:23;10.93;;;7.70;;
8628;SDS011;4352;49.404;11.092;2022-07-22T06:03:50;11.63;;;7.83;;
8628;SDS011;4352;49.404;11.092;2022-07-22T06:06:17;10.60;;;8.33;;
8628;SDS011;4352;49.404;11.092;2022-07-22T06:08:44;9.97;;;7.50;;
8628;SDS011;4352;49.404;11.092;2022-07-22T06:11:13;9.77;;;7.43;;
8628;SDS011;4352;49.404;11.092;2022-07-22T06:13:40;9.60;;;8.00;;
8628;SDS011;4352;49.404;11.092;2022-07-22T06:16:07;8.20;;;7.40;;
8628;SDS011;4352;49.404;11.092;2022-07-22T06:18:34;10.80;;;7.47;;
8628;SDS011;4352;49.404;11.092;2022-07-22T06:21:01;11.50;;;7.90;;
8628;SDS011;4352;49.404;11.092;2022-07-22T06:23:28;11.47;;;7.73;;
8628;SDS011;4352;49.404;11.092;2022-07-22T06:25:56;9.47;;;7.40;;
8628;SDS011;4352;49.404;11.092;2022-07-22T06:28:24;11.90;;;7.80;;
8628;SDS011;4352;49.404;11.092;2022-07-22T06:30:51;11.17;;;7.63;;
8628;SDS011;4352;49.404;11.092;2022-07-22T06:33:18;12.27;;;7.87;;
8628;SDS011;4352;49.404;11.092;2022-07-22T06:35:45;9.63;;;7.80;;
8628;SDS011;4352;49.404;11.092;2022-07-22T06:38:12;13.47;;;8.27;;
8628;SDS011;4352;49.404;11.092;2022-07-22T06:40:39;10.90;;;8.13;;
8628;SDS011;4352;49.404;11.092;2022-07-22T06:43:06;12.80;;;8.37;;
8628;SDS011;4352;49.404;11.092;2022-07-22T06:45:34;9.03;;;7.30;;
8628;SDS011;4352;49.404;11.092;2022-07-22T06:48:02;10.90;;;7.97;;
8628;SDS011;4352;49.404;11.092;2022-07-22T06:50:29;9.60;;;7.90;;
8628;SDS011;4352;49.404;11.092;2022-07-22T06:52:56;9.83;;;7.70;;
8628;SDS011;4352;49.404;11.092;2022-07-22T10:38:24;7.70;;;5.40;;
8628;SDS011;4352;49.404;11.092;2022-07-22T10:40:52;9.05;;;5.20;;
8628;SDS011;4352;49.404;11.092;2022-07-22T10:43:21;6.32;;;5.70;;
8628;SDS011;4352;49.404;11.092;2022-07-22T10:45:49;6.80;;;5.40;;
8628;SDS011;4352;49.404;11.092;2022-07-22T10:48:17;8.73;;;5.13;;
8628;SDS011;4352;49.404;11.092;2022-07-22T10:50:48;8.95;;;5.53;;
8628;SDS011;4352;49.404;11.092;2022-07-22T10:53:17;6.82;;;5.30;;
8628;SDS011;4352;49.404;11.092;2022-07-22T10:56:03;6.95;;;5.93;;
8628;SDS011;4352;49.404;11.092;2022-07-22T10:58:43;6.65;;;4.75;;
8628;SDS011;4352;49.404;11.092;2022-07-22T11:01:11;8.27;;;5.60;;
8628;SDS011;4352;49.404;11.092;2022-07-22T11:03:39;7.90;;;5.68;;
8628;SDS011;4352;49.404;11.092;2022-07-22T11:06:18;7.32;;;5.30;;
8628;SDS011;4352;49.404;11.092;2022-07-22T11:08:46;8.27;;;5.22;;
8628;SDS011;4352;49.404;11.092;2022-07-22T11:11:15;5.57;;;4.88;;
8628;SDS011;4352;49.404;11.092;2022-07-22T11:13:42;5.88;;;4.88;;
8628;SDS011;4352;49.404;11.092;2022-07-22T11:16:16;6.13;;;5.53;;
8628;SDS011;4352;49.404;11.092;2022-07-22T11:18:47;6.72;;;5.38;;
8628;SDS011;4352;49.404;11.092;2022-07-22T11:21:18;6.43;;;5.20;;
8628;SDS011;4352;49.404;11.092;2022-07-22T11:23:46;9.10;;;5.18;;
8628;SDS011;4352;49.404;11.092;2022-07-22T11:26:16;7.30;;;4.82;;
8628;SDS011;4352;49.404;11.092;2022-07-22T11:28:44;9.50;;;5.00;;
8628;SDS011;4352;49.404;11.092;2022-07-22T11:31:13;6.18;;;5.10;;
8628;SDS011;4352;49.404;11.092;2022-07-22T11:33:41;6.93;;;5.40;;
8628;SDS011;4352;49.404;11.092;2022-07-22T11:36:08;5.78;;;5.00;;
8628;SDS011;4352;49.404;11.092;2022-07-22T11:38:39;6.57;;;4.97;;
8628;SDS011;4352;49.404;11.092;2022-07-22T11:41:06;10.05;;;5.00;;
8628;SDS011;4352;49.404;11.092;2022-07-22T11:43:38;6.72;;;5.32;;
8628;SDS011;4352;49.404;11.092;2022-07-22T11:46:05;7.53;;;5.40;;
8628;SDS011;4352;49.404;11.092;2022-07-22T11:48:32;5.25;;;4.60;;
8628;SDS011;4352;49.404;11.092;2022-07-22T11:51:00;5.82;;;4.78;;
8628;SDS011;4352;49.404;11.092;2022-07-22T11:53:27;7.43;;;4.90;;
8628;SDS011;4352;49.404;11.092;2022-07-22T11:55:57;5.30;;;4.80;;
8628;SDS011;4352;49.404;11.092;2022-07-22T11:58:39;8.73;;;4.95;;
8628;SDS011;4352;49.404;11.092;2022-07-22T12:01:07;7.35;;;4.50;;
8628;SDS011;4352;49.404;11.092;2022-07-22T12:03:35;5.97;;;4.45;;
8628;SDS011;4352;49.404;11.092;2022-07-22T12:06:04;6.78;;;5.28;;
8628;SDS011;4352;49.404;11.092;2022-07-22T12:08:32;9.30;;;4.90;;
8628;SDS011;4352;49.404;11.092;2022-07-22T12:10:59;4.47;;;4.07;;
8628;SDS011;4352;49.404;11.092;2022-07-22T12:13:30;5.05;;;4.60;;
8628;SDS011;4352;49.404;11.092;2022-07-22T12:15:59;5.68;;;5.13;;
8628;SDS011;4352;49.404;11.092;2022-07-22T12:18:26;5.97;;;4.72;;
8628;SDS011;4352;49.404;11.092;2022-07-22T12:20:54;5.50;;;4.60;;
8628;SDS011;4352;49.404;11.092;2022-07-22T12:23:22;5.10;;;4.60;;
8628;SDS011;4352;49.404;11.092;2022-07-22T12:25:52;4.97;;;4.47;;
8628;SDS011;4352;49.404;11.092;2022-07-22T12:28:19;4.75;;;4.30;;
8628;SDS011;4352;49.404;11.092;2022-07-22T12:30:46;5.15;;;4.65;;
8628;SDS011;4352;49.404;11.092;2022-07-22T12:33:14;6.00;;;5.40;;
8628;SDS011;4352;49.404;11.092;2022-07-22T12:35:42;6.15;;;4.50;;
8628;SDS011;4352;49.404;11.092;2022-07-22T12:38:09;6.03;;;4.82;;
8628;SDS011;4352;49.404;11.092;2022-07-22T12:40:37;6.60;;;4.70;;
8628;SDS011;4352;49.404;11.092;2022-07-22T12:43:05;4.93;;;4.50;;
8628;SDS011;4352;49.404;11.092;2022-07-22T12:45:32;5.20;;;4.70;;
8628;SDS011;4352;49.404;11.092;2022-07-22T12:48:05;5.43;;;4.60;;
8628;SDS011;4352;49.404;11.092;2022-07-22T12:50:35;6.30;;;4.50;;
8628;SDS011;4352;49.404;11.092;2022-07-22T12:53:03;5.47;;;4.82;;
8628;SDS011;4352;49.404;11.092;2022-07-22T12:55:31;4.70;;;4.10;;
8628;SDS011;4352;49.404;11.092;2022-07-22T12:57:58;6.55;;;4.45;;
8628;SDS011;4352;49.404;11.092;2022-07-22T13:00:26;4.40;;;4.10;;
8628;SDS011;4352;49.404;11.092;2022-07-22T13:02:53;7.43;;;4.60;;
8628;SDS011;4352;49.404;11.092;2022-07-22T13:05:21;9.02;;;4.18;;
8628;SDS011;4352;49.404;11.092;2022-07-22T13:07:50;5.30;;;4.82;;
8628;SDS011;4352;49.404;11.092;2022-07-22T13:10:18;5.38;;;4.80;;
8628;SDS011;4352;49.404;11.092;2022-07-22T13:12:45;4.57;;;4.13;;
8628;SDS011;4352;49.404;11.092;2022-07-22T13:15:12;7.20;;;4.47;;
8628;SDS011;4352;49.404;11.092;2022-07-22T13:17:39;6.32;;;4.53;;
8628;SDS011;4352;49.404;11.092;2022-07-22T13:20:07;5.13;;;4.20;;
8628;SDS011;4352;49.404;11.092;2022-07-22T13:22:35;5.15;;;4.53;;
8628;SDS011;4352;49.404;11.092;2022-07-22T13:25:04;6.68;;;4.65;;
8628;SDS011;4352;49.404;11.092;2022-07-22T13:27:31;14.88;;;4.30;;
8628;SDS011;4352;49.404;11.092;2022-07-22T13:29:58;5.55;;;4.20;;
8628;SDS011;4352;49.404;11.092;2022-07-22T13:32:25;6.72;;;5.03;;
8628;SDS011;4352;49.404;11.092;2022-07-22T13:34:52;5.55;;;4.43;;
8628;SDS011;4352;49.404;11.092;2022-07-22T13:37:19;7.43;;;4.32;;
8628;SDS011;4352;49.404;11.092;2022-07-22T13:39:47;5.13;;;4.22;;
8628;SDS011;4352;49.404;11.092;2022-07-22T13:42:15;6.05;;;4.40;;
8628;SDS011;4352;49.404;11.092;2022-07-22T13:44:43;5.90;;;4.55;;
8628;SDS011;4352;49.404;11.092;2022-07-22T13:47:10;6.47;;;4.20;;
8628;SDS011;4352;49.404;11.092;2022-07-22T13:49:37;4.30;;;3.97;;
8628;SDS011;4352;49.404;11.092;2022-07-22T13:52:04;5.45;;;4.57;;
8628;SDS011;4352;49.404;11.092;2022-07-22T13:54:31;5.65;;;4.72;;
8628;SDS011;4352;49.404;11.092;2022-07-22T13:56:59;4.82;;;4.38;;
8628;SDS011;4352;49.404;11.092;2022-07-22T13:59:27;8.63;;;4.75;;
8628;SDS011;4352;49.404;11.092;2022-07-22T14:01:55;5.75;;;4.53;;
8628;SDS011;4352;49.404;11.092;2022-07-22T14:04:22;5.70;;;5.15;;
8628;SDS011;4352;49.404;11.092;2022-07-22T14:06:49;7.82;;;5.22;;
8628;SDS011;4352;49.404;11.092;2022-07-22T14:09:17;5.30;;;4.65;;
8628;SDS011;4352;49.404;11.092;2022-07-22T14:11:44;5.60;;;4.82;;
8628;SDS011;4352;49.404;11.092;2022-07-22T14:14:11;7.93;;;4.85;;
8628;SDS011;4352;49.404;11.092;2022-07-22T14:16:40;7.43;;;4.80;;
8628;SDS011;4352;49.404;11.092;2022-07-22T14:19:08;5.32;;;4.45;;
8628;SDS011;4352;49.404;11.092;2022-07-22T14:21:36;6.68;;;4.78;;
8628;SDS011;4352;49.404;11.092;2022-07-22T14:24:04;4.97;;;4.57;;
8628;SDS011;4352;49.404;11.092;2022-07-22T14:26:32;6.75;;;4.75;;
8628;SDS011;4352;49.404;11.092;2022-07-22T14:28:59;5.53;;;4.40;;
8628;SDS011;4352;49.404;11.092;2022-07-22T14:31:27;5.78;;;4.53;;
8628;SDS011;4352;49.404;11.092;2022-07-22T14:33:56;4.45;;;4.00;;
8628;SDS011;4352;49.404;11.092;2022-07-22T14:36:23;6.35;;;4.60;;
8628;SDS011;4352;49.404;11.092;2022-07-22T14:38:50;6.15;;;4.20;;
8628;SDS011;4352;49.404;11.092;2022-07-22T14:41:18;6.00;;;4.40;;
8628;SDS011;4352;49.404;11.092;2022-07-22T14:43:45;5.32;;;4.70;;
8628;SDS011;4352;49.404;11.092;2022-07-22T14:46:13;5.05;;;4.55;;
8628;SDS011;4352;49.404;11.092;2022-07-22T14:48:40;5.78;;;4.18;;
8628;SDS011;4352;49.404;11.092;2022-07-22T14:51:08;4.60;;;4.20;;
8628;SDS011;4352;49.404;11.092;2022-07-22T14:53:35;4.88;;;4.47;;
8628;SDS011;4352;49.404;11.092;2022-07-22T14:56:02;6.03;;;4.20;;
8628;SDS011;4352;49.404;11.092;2022-07-22T14:58:29;6.15;;;4.43;;
8628;SDS011;4352;49.404;11.092;2022-07-22T15:00:56;3.97;;;3.67;;
8628;SDS011;4352;49.404;11.092;2022-07-22T15:03:24;5.30;;;4.03;;
8628;SDS011;4352;49.404;11.092;2022-07-22T15:05:51;5.97;;;4.22;;
8628;SDS011;4352;49.404;11.092;2022-07-22T15:08:19;4.63;;;4.03;;
8628;SDS011;4352;49.404;11.092;2022-07-22T15:10:46;4.55;;;4.15;;
8628;SDS011;4352;49.404;11.092;2022-07-22T15:13:14;5.18;;;4.10;;
8628;SDS011;4352;49.404;11.092;2022-07-22T15:15:41;4.32;;;3.90;;
8628;SDS011;4352;49.404;11.092;2022-07-22T15:18:08;5.18;;;4.35;;
8628;SDS011;4352;49.404;11.092;2022-07-22T15:20:35;5.85;;;4.45;;
8628;SDS011;4352;49.404;11.092;2022-07-22T15:23:02;5.60;;;4.07;;
8628;SDS011;4352;49.404;11.092;2022-07-22T15:25:31;5.80;;;4.38;;
8628;SDS011;4352;49.404;11.092;2022-07-22T15:27:58;4.10;;;3.80;;
8628;SDS011;4352;49.404;11.092;2022-07-22T15:30:26;5.00;;;4.18;;
8628;SDS011;4352;49.404;11.092;2022-07-22T15:32:53;4.22;;;3.80;;
8628;SDS011;4352;49.404;11.092;2022-07-22T15:35:20;6.28;;;4.35;;
8628;SDS011;4352;49.404;11.092;2022-07-22T15:37:47;6.25;;;4.53;;
8628;SDS011;4352;49.404;11.092;2022-07-22T15:40:14;4.95;;;4.25;;
8628;SDS011;4352;49.404;11.092;2022-07-22T15:42:43;8.38;;;4.45;;
8628;SDS011;4352;49.404;11.092;2022-07-22T15:45:11;7.47;;;4.53;;
8628;SDS011;4352;49.404;11.092;2022-07-22T15:47:38;5.07;;;4.35;;
8628;SDS011;4352;49.404;11.092;2022-07-22T15:50:06;8.40;;;4.43;;
8628;SDS011;4352;49.404;11.092;2022-07-22T15:52:33;8.02;;;4.22;;
8628;SDS011;4352;49.404;11.092;2022-07-22T15:55:00;6.00;;;4.30;;
8628;SDS011;4352;49.404;11.092;2022-07-22T15:57:27;7.65;;;4.40;;
8628;SDS011;4352;49.404;11.092;2022-07-22T16:00:14;4.72;;;4.32;;
8628;SDS011;4352;49.404;11.092;2022-07-22T16:02:41;7.47;;;4.05;;
8628;SDS011;4352;49.404;11.092;2022-07-22T16:05:08;4.85;;;4.07;;
8628;SDS011;4352;49.404;11.092;2022-07-22T16:07:35;5.43;;;4.80;;
8628;SDS011;4352;49.404;11.092;2022-07-22T16:10:02;5.75;;;4.55;;
8628;SDS011;4352;49.404;11.092;2022-07-22T16:12:30;6.32;;;4.50;;
8628;SDS011;4352;49.404;11.092;2022-07-22T16:14:57;7.32;;;4.72;;
8628;SDS011;4352;49.404;11.092;2022-07-22T16:17:25;5.88;;;5.30;;
8628;SDS011;4352;49.404;11.092;2022-07-22T16:19:52;9.93;;;4.50;;
8628;SDS011;4352;49.404;11.092;2022-07-22T16:22:19;6.10;;;4.40;;
8628;SDS011;4352;49.404;11.092;2022-07-22T16:24:46;5.68;;;4.45;;
8628;SDS011;4352;49.404;11.092;2022-07-22T16:27:13;5.88;;;4.35;;
8628;SDS011;4352;49.404;11.092;2022-07-22T16:29:40;5.25;;;4.75;;
8628;SDS011;4352;49.404;11.092;2022-07-22T16:32:07;5.95;;;4.60;;
8628;SDS011;4352;49.404;11.092;2022-07-22T16:34:36;6.68;;;4.75;;
8628;SDS011;4352;49.404;11.092;2022-07-22T16:37:03;6.15;;;4.57;;
8628;SDS011;4352;49.404;11.092;2022-07-22T16:39:30;5.38;;;4.88;;
8628;SDS011;4352;49.404;11.092;2022-07-22T16:41:58;7.90;;;4.65;;
8628;SDS011;4352;49.404;11.092;2022-07-22T16:44:25;7.35;;;5.03;;
8628;SDS011;4352;49.404;11.092;2022-07-22T16:46:52;5.20;;;4.68;;
8628;SDS011;4352;49.404;11.092;2022-07-22T16:49:19;7.10;;;4.30;;
8628;SDS011;4352;49.404;11.092;2022-07-22T16:51:47;6.05;;;5.00;;
8628;SDS011;4352;49.404;11.092;2022-07-22T16:54:15;9.60;;;4.63;;
8628;SDS011;4352;49.404;11.092;2022-07-22T16:56:42;5.20;;;4.70;;
8628;SDS011;4352;49.404;11.092;2022-07-22T16:59:09;7.85;;;4.65;;
8628;SDS011;4352;49.404;11.092;2022-07-22T17:01:36;5.20;;;4.65;;
8628;SDS011;4352;49.404;11.092;2022-07-22T17:04:03;5.63;;;4.43;;
8628;SDS011;4352;49.404;11.092;2022-07-22T17:06:30;9.10;;;4.15;;
8628;SDS011;4352;49.404;11.092;2022-07-22T17:08:59;6.93;;;4.60;;
8628;SDS011;4352;49.404;11.092;2022-07-22T17:11:26;6.70;;;4.38;;
8628;SDS011;4352;49.404;11.092;2022-07-22T17:13:53;8.32;;;4.32;;
8628;SDS011;4352;49.404;11.092;2022-07-22T17:16:20;5.07;;;4.57;;
8628;SDS011;4352;49.404;11.092;2022-07-22T17:18:48;7.35;;;4.90;;
8628;SDS011;4352;49.404;11.092;2022-07-22T17:21:15;6.53;;;4.10;;
8628;SDS011;4352;49.404;11.092;2022-07-22T17:23:42;8.20;;;4.65;;
8628;SDS011;4352;49.404;11.092;2022-07-22T17:26:10;5.10;;;4.55;;
8628;SDS011;4352;49.404;11.092;2022-07-22T17:28:37;6.68;;;4.80;;
8628;SDS011;4352;49.404;11.092;2022-07-22T17:31:05;5.32;;;4.47;;
8628;SDS011;4352;49.404;11.092;2022-07-22T17:33:32;5.82;;;4.60;;
8628;SDS011;4352;49.404;11.092;2022-07-22T17:35:59;7.68;;;4.75;;
8628;SDS011;4352;49.404;11.092;2022-07-22T17:38:26;7.20;;;4.60;;
8628;SDS011;4352;49.404;11.092;2022-07-22T17:40:54;6.40;;;5.03;;
8628;SDS011;4352;49.404;11.092;2022-07-22T17:43:22;16.83;;;5.90;;
8628;SDS011;4352;49.404;11.092;2022-07-22T17:45:49;10.13;;;5.05;;
8628;SDS011;4352;49.404;11.092;2022-07-22T17:48:16;10.57;;;5.55;;
8628;SDS011;4352;49.404;11.092;2022-07-22T17:50:43;8.48;;;4.57;;
8628;SDS011;4352;49.404;11.092;2022-07-22T17:53:11;21.70;;;7.32;;
8628;SDS011;4352;49.404;11.092;2022-07-22T17:55:38;5.72;;;4.70;;
8628;SDS011;4352;49.404;11.092;2022-07-22T17:58:05;8.02;;;5.07;;
8628;SDS011;4352;49.404;11.092;2022-07-22T18:00:34;6.22;;;5.00;;
8628;SDS011;4352;49.404;11.092;2022-07-22T18:03:01;5.25;;;4.63;;
8628;SDS011;4352;49.404;11.092;2022-07-22T18:05:29;8.05;;;5.22;;
8628;SDS011;4352;49.404;11.092;2022-07-22T18:07:56;6.30;;;4.60;;
8628;SDS011;4352;49.404;11.092;2022-07-22T18:10:24;4.97;;;4.45;;
8628;SDS011;4352;49.404;11.092;2022-07-22T18:12:51;8.95;;;4.90;;
8628;SDS011;4352;49.404;11.092;2022-07-22T18:15:18;7.05;;;5.10;;
8628;SDS011;4352;49.404;11.092;2022-07-22T18:17:46;8.32;;;4.60;;
8628;SDS011;4352;49.404;11.092;2022-07-22T18:20:14;6.20;;;4.47;;
8628;SDS011;4352;49.404;11.092;2022-07-22T18:22:41;9.13;;;4.97;;
8628;SDS011;4352;49.404;11.092;2022-07-22T18:25:08;6.57;;;4.63;;
8628;SDS011;4352;49.404;11.092;2022-07-22T18:27:35;6.00;;;4.45;;
8628;SDS011;4352;49.404;11.092;2022-07-22T18:30:02;7.80;;;5.15;;
8628;SDS011;4352;49.404;11.092;2022-07-22T18:32:30;6.35;;;4.60;;
8628;SDS011;4352;49.404;11.092;2022-07-22T18:34:58;6.32;;;5.07;;
8628;SDS011;4352;49.404;11.092;2022-07-22T18:37:25;12.30;;;5.30;;
8628;SDS011;4352;49.404;11.092;2022-07-22T18:39:52;6.93;;;4.97;;
8628;SDS011;4352;49.404;11.092;2022-07-22T18:42:19;7.97;;;5.13;;
8628;SDS011;4352;49.404;11.092;2022-07-22T18:44:46;7.55;;;4.93;;